sensor_id;sensor_type;location;lat;lon;timestamp;temperature;humidity
30049;DHT22;16879;50.852;15.602;2023-12-20T15:41:49;5.20;1.00
30049;DHT22;16879;50.852;15.602;2023-12-20T15:44:16;5.10;1.00
30049;DHT22;16879;50.852;15.602;2023-12-20T15:49:07;4.60;1.00
30049;DHT22;16879;50.852;15.602;2023-12-20T15:51:36;5.10;1.00
30049;DHT22;16879;50.852;15.602;2023-12-20T15:54:02;4.90;1.00
30049;DHT22;16879;50.852;15.602;2023-12-20T15:56:34;4.70;1.00
30049;DHT22;16879;50.852;15.602;2023-12-20T15:59:00;4.60;1.00
30049;DHT22;16879;50.852;15.602;2023-12-20T16:01:26;4.90;1.00
30049;DHT22;16879;50.852;15.602;2023-12-20T16:03:52;5.30;1.00
30049;DHT22;16879;50.852;15.602;2023-12-20T16:06:17;5.20;1.00
30049;DHT22;16879;50.852;15.602;2023-12-20T16:08:43;4.70;1.00
30049;DHT22;16879;50.852;15.602;2023-12-20T16:13:35;4.70;1.00
30049;DHT22;16879;50.852;15.602;2023-12-20T16:16:03;5.10;1.00
30049;DHT22;16879;50.852;15.602;2023-12-20T16:18:29;5.30;1.00
30049;DHT22;16879;50.852;15.602;2023-12-20T16:23:23;5.00;1.00
30049;DHT22;16879;50.852;15.602;2023-12-20T16:28:15;5.30;1.00
30049;DHT22;16879;50.852;15.602;2023-12-20T16:30:41;5.10;1.00
30049;DHT22;16879;50.852;15.602;2023-12-20T16:33:08;4.90;1.00
30049;DHT22;16879;50.852;15.602;2023-12-20T16:35:33;5.30;1.00
30049;DHT22;16879;50.852;15.602;2023-12-20T16:38:02;4.30;1.00
30049;DHT22;16879;50.852;15.602;2023-12-20T16:40:27;5.30;1.00
30049;DHT22;16879;50.852;15.602;2023-12-20T16:42:54;4.90;1.00
30049;DHT22;16879;50.852;15.602;2023-12-20T16:45:23;5.10;1.00
30049;DHT22;16879;50.852;15.602;2023-12-20T16:52:41;5.30;1.00
30049;DHT22;16879;50.852;15.602;2023-12-20T16:55:10;4.80;1.00
30049;DHT22;16879;50.852;15.602;2023-12-20T16:57:37;4.60;1.00
30049;DHT22;16879;50.852;15.602;2023-12-20T17:07:22;5.10;1.00
30049;DHT22;16879;50.852;15.602;2023-12-20T17:09:49;4.70;1.00
30049;DHT22;16879;50.852;15.602;2023-12-20T17:12:16;4.60;1.00
30049;DHT22;16879;50.852;15.602;2023-12-20T17:14:42;5.00;1.00
30049;DHT22;16879;50.852;15.602;2023-12-20T17:17:08;4.60;1.00
30049;DHT22;16879;50.852;15.602;2023-12-20T17:19:34;4.50;1.00
30049;DHT22;16879;50.852;15.602;2023-12-20T17:22:00;4.20;1.00
30049;DHT22;16879;50.852;15.602;2023-12-20T17:24:28;4.60;99.90
30049;DHT22;16879;50.852;15.602;2023-12-20T17:26:54;4.20;99.90
30049;DHT22;16879;50.852;15.602;2023-12-20T17:29:20;4.10;99.90
30049;DHT22;16879;50.852;15.602;2023-12-20T17:34:11;3.60;99.90
30049;DHT22;16879;50.852;15.602;2023-12-20T17:36:39;4.20;99.90
30049;DHT22;16879;50.852;15.602;2023-12-20T17:41:31;4.30;99.90
30049;DHT22;16879;50.852;15.602;2023-12-20T17:44:01;4.00;99.90
30049;DHT22;16879;50.852;15.602;2023-12-20T17:53:48;3.60;99.90
30049;DHT22;16879;50.852;15.602;2023-12-20T17:56:16;4.40;99.90
30049;DHT22;16879;50.852;15.602;2023-12-20T18:03:35;4.20;99.90
30049;DHT22;16879;50.852;15.602;2023-12-20T18:06:01;4.00;99.90
30049;DHT22;16879;50.852;15.602;2023-12-20T18:08:28;4.60;99.90
30049;DHT22;16879;50.852;15.602;2023-12-20T18:10:55;4.60;99.90
30049;DHT22;16879;50.852;15.602;2023-12-20T18:15:47;4.30;99.90
30049;DHT22;16879;50.852;15.602;2023-12-20T18:20:40;4.20;99.90
30049;DHT22;16879;50.852;15.602;2023-12-20T18:23:06;4.20;99.90
30049;DHT22;16879;50.852;15.602;2023-12-20T18:25:33;4.20;99.90
30049;DHT22;16879;50.852;15.602;2023-12-20T18:32:52;4.10;99.90
30049;DHT22;16879;50.852;15.602;2023-12-20T18:40:12;4.40;94.10
30049;DHT22;16879;50.852;15.602;2023-12-20T18:42:39;4.20;99.90
30049;DHT22;16879;50.852;15.602;2023-12-20T18:45:07;4.30;99.90
30049;DHT22;16879;50.852;15.602;2023-12-20T18:50:00;4.30;99.90
30049;DHT22;16879;50.852;15.602;2023-12-20T18:52:33;4.30;99.90
30049;DHT22;16879;50.852;15.602;2023-12-20T18:55:00;4.00;99.90
30049;DHT22;16879;50.852;15.602;2023-12-20T18:57:26;4.50;99.90
30049;DHT22;16879;50.852;15.602;2023-12-20T18:59:53;4.30;99.90
30049;DHT22;16879;50.852;15.602;2023-12-20T19:04:46;4.60;99.90
30049;DHT22;16879;50.852;15.602;2023-12-20T19:07:13;4.60;99.90
30049;DHT22;16879;50.852;15.602;2023-12-20T19:12:06;4.80;99.90
30049;DHT22;16879;50.852;15.602;2023-12-20T19:14:33;4.40;99.90
30049;DHT22;16879;50.852;15.602;2023-12-20T19:17:00;4.30;99.90
30049;DHT22;16879;50.852;15.602;2023-12-20T19:21:54;4.50;99.90
30049;DHT22;16879;50.852;15.602;2023-12-20T19:24:21;4.20;99.90
30049;DHT22;16879;50.852;15.602;2023-12-20T19:26:47;4.70;99.90
30049;DHT22;16879;50.852;15.602;2023-12-20T19:29:14;4.40;99.90
30049;DHT22;16879;50.852;15.602;2023-12-20T19:34:07;4.30;99.90
30049;DHT22;16879;50.852;15.602;2023-12-20T19:36:34;4.10;99.90
30049;DHT22;16879;50.852;15.602;2023-12-20T19:39:00;4.40;99.90
30049;DHT22;16879;50.852;15.602;2023-12-20T19:43:55;4.10;99.90
30049;DHT22;16879;50.852;15.602;2023-12-20T19:46:24;4.40;99.90
30049;DHT22;16879;50.852;15.602;2023-12-20T19:48:52;4.30;99.90
30049;DHT22;16879;50.852;15.602;2023-12-20T19:51:19;4.20;99.90
30049;DHT22;16879;50.852;15.602;2023-12-20T19:53:49;4.40;99.90
30049;DHT22;16879;50.852;15.602;2023-12-20T19:56:15;4.40;99.90
30049;DHT22;16879;50.852;15.602;2023-12-20T19:58:42;4.10;99.90
30049;DHT22;16879;50.852;15.602;2023-12-20T20:03:35;4.40;1.00
30049;DHT22;16879;50.852;15.602;2023-12-20T20:06:02;4.20;1.00
30049;DHT22;16879;50.852;15.602;2023-12-20T20:08:29;4.20;1.00
30049;DHT22;16879;50.852;15.602;2023-12-20T20:10:57;4.20;1.00
30049;DHT22;16879;50.852;15.602;2023-12-20T20:13:23;4.30;1.00
30049;DHT22;16879;50.852;15.602;2023-12-20T20:15:52;3.70;1.00
30049;DHT22;16879;50.852;15.602;2023-12-20T20:18:18;4.00;99.90
30049;DHT22;16879;50.852;15.602;2023-12-20T20:20:46;4.10;99.90
30049;DHT22;16879;50.852;15.602;2023-12-20T20:23:12;4.30;1.00
30049;DHT22;16879;50.852;15.602;2023-12-20T20:25:41;4.20;11.30
30049;DHT22;16879;50.852;15.602;2023-12-20T20:30:34;4.20;99.90
30049;DHT22;16879;50.852;15.602;2023-12-20T20:33:01;4.00;99.90
30049;DHT22;16879;50.852;15.602;2023-12-20T20:35:29;4.30;99.90
30049;DHT22;16879;50.852;15.602;2023-12-20T20:37:55;4.00;99.90
30049;DHT22;16879;50.852;15.602;2023-12-20T20:40:22;3.90;99.90
30049;DHT22;16879;50.852;15.602;2023-12-20T20:42:49;4.10;99.90
30049;DHT22;16879;50.852;15.602;2023-12-20T20:45:15;4.10;99.90
30049;DHT22;16879;50.852;15.602;2023-12-20T20:47:43;4.00;99.90
30049;DHT22;16879;50.852;15.602;2023-12-20T20:50:10;3.80;99.90
30049;DHT22;16879;50.852;15.602;2023-12-20T20:52:37;4.00;99.90
30049;DHT22;16879;50.852;15.602;2023-12-20T20:55:05;3.40;24.10
30049;DHT22;16879;50.852;15.602;2023-12-20T20:57:31;3.30;6.30
30049;DHT22;16879;50.852;15.602;2023-12-20T20:59:58;3.90;99.90
30049;DHT22;16879;50.852;15.602;2023-12-20T21:02:24;4.00;20.40
30049;DHT22;16879;50.852;15.602;2023-12-20T21:04:50;3.50;6.70
30049;DHT22;16879;50.852;15.602;2023-12-20T21:12:09;4.00;1.00
30049;DHT22;16879;50.852;15.602;2023-12-20T21:14:34;4.00;99.90
30049;DHT22;16879;50.852;15.602;2023-12-20T21:17:00;4.10;99.90
30049;DHT22;16879;50.852;15.602;2023-12-20T21:19:26;3.90;1.00
30049;DHT22;16879;50.852;15.602;2023-12-20T21:21:53;3.60;99.90
30049;DHT22;16879;50.852;15.602;2023-12-20T21:24:18;3.50;99.90
30049;DHT22;16879;50.852;15.602;2023-12-20T21:29:12;3.40;1.00
30049;DHT22;16879;50.852;15.602;2023-12-20T21:34:04;3.70;1.00
30049;DHT22;16879;50.852;15.602;2023-12-20T21:36:29;3.50;1.00
30049;DHT22;16879;50.852;15.602;2023-12-20T21:38:55;3.90;1.00
